Time;durP1;ratioP1;P1;durP2;ratioP2;P2;SDS_P1;SDS_P2;PMS_P1;PMS_P2;Temp;Humidity;BMP_temperature;BMP_pressure;BME280_temperature;BME280_humidity;BME280_pressure;Samples;Min_cycle;Max_cycle;Signal;HPM_P1;HPM_P2
2023/04/20 00:02:08;;;;;;;29.98;26.88;;;6.20;99.90;;;;;;4990817;28;20553;-76
2023/04/20 00:04:35;;;;;;;28.42;25.92;;;6.10;99.90;;;;;;5002711;28;20096;-75
2023/04/20 00:07:03;;;;;;;28.80;25.95;;;6.10;99.90;;;;;;4982579;28;20053;-75
2023/04/20 00:09:30;;;;;;;28.73;26.20;;;6.10;99.90;;;;;;4991337;28;20798;-77
2023/04/20 00:11:57;;;;;;;27.65;25.45;;;6.20;99.90;;;;;;5001851;28;20041;-77
2023/04/20 00:14:24;;;;;;;28.50;26.05;;;6.10;99.90;;;;;;4991081;28;20058;-76
2023/04/20 00:16:50;;;;;;;27.77;25.38;;;6.10;99.90;;;;;;4995423;28;20042;-75
2023/04/20 00:19:17;;;;;;;28.98;26.48;;;6.10;99.90;;;;;;5008067;28;20049;-77
2023/04/20 00:21:45;;;;;;;29.08;26.67;;;6.00;99.90;;;;;;4980620;28;20415;-75
2023/04/20 00:24:11;;;;;;;27.08;25.00;;;6.00;99.90;;;;;;4974529;28;20156;-77
2023/04/20 00:26:38;;;;;;;28.35;26.10;;;6.10;99.90;;;;;;5008541;28;20049;-76
2023/04/20 00:29:06;;;;;;;29.55;26.80;;;6.00;99.90;;;;;;4986725;28;20058;-75
2023/04/20 00:31:33;;;;;;;28.80;26.52;;;6.00;99.90;;;;;;4968961;28;20076;-76
2023/04/20 00:33:59;;;;;;;27.90;25.60;;;6.00;99.90;;;;;;4994375;28;20490;-75
2023/04/20 00:36:26;;;;;;;27.58;25.08;;;6.00;99.90;;;;;;4990929;28;20057;-75
2023/04/20 00:38:53;;;;;;;28.08;25.55;;;5.90;99.90;;;;;;4987529;28;20054;-77
2023/04/20 00:41:20;;;;;;;28.52;25.80;;;5.90;99.90;;;;;;4984693;28;20050;-74
2023/04/20 00:43:51;;;;;;;28.23;25.77;;;5.90;99.90;;;;;;4991053;28;20046;-77
2023/04/20 00:46:20;;;;;;;28.20;25.58;;;5.90;99.90;;;;;;4992629;28;20278;-74
2023/04/20 00:48:48;;;;;;;29.02;26.40;;;5.80;99.90;;;;;;4991159;28;20141;-75
2023/04/20 00:51:15;;;;;;;28.35;25.85;;;5.70;99.90;;;;;;4979310;28;20903;-77
2023/04/20 00:53:43;;;;;;;27.25;24.77;;;5.50;99.90;;;;;;4990144;28;20069;-76
2023/04/20 00:56:12;;;;;;;26.67;24.30;;;5.40;99.90;;;;;;4987479;28;20414;-77
2023/04/20 00:58:41;;;;;;;28.48;25.75;;;5.40;99.90;;;;;;5007473;28;20679;-76
2023/04/20 01:01:09;;;;;;;27.25;24.95;;;5.40;99.90;;;;;;4984876;28;20057;-77
2023/04/20 01:03:38;;;;;;;26.83;24.38;;;5.30;99.90;;;;;;4982180;28;20050;-76
2023/04/20 01:06:07;;;;;;;25.98;23.60;;;5.30;99.90;;;;;;4984267;28;20046;-77
2023/04/20 01:08:35;;;;;;;27.40;24.63;;;5.40;99.90;;;;;;5001061;28;20150;-77
2023/04/20 01:11:03;;;;;;;24.10;22.17;;;5.40;99.90;;;;;;4966545;28;20179;-75
2023/04/20 01:13:29;;;;;;;24.73;22.27;;;5.30;99.90;;;;;;4979624;28;20046;-76
2023/04/20 01:15:59;;;;;;;25.13;22.88;;;5.20;99.90;;;;;;5006394;28;20124;-76
2023/04/20 01:18:26;;;;;;;24.13;21.90;;;5.10;99.90;;;;;;4994151;28;20153;-77
2023/04/20 01:20:53;;;;;;;22.98;20.77;;;5.00;99.90;;;;;;4987602;28;20196;-77
2023/04/20 01:23:19;;;;;;;21.77;19.98;;;4.90;99.90;;;;;;5010316;28;20055;-75
2023/04/20 01:25:46;;;;;;;22.13;20.13;;;4.80;99.90;;;;;;5003339;28;20140;-77
2023/04/20 01:28:13;;;;;;;20.30;18.70;;;4.80;99.90;;;;;;4994966;28;20232;-75
2023/04/20 01:30:41;;;;;;;20.08;18.50;;;4.80;99.90;;;;;;5006003;28;20061;-73
2023/04/20 01:33:07;;;;;;;20.35;18.45;;;4.70;99.90;;;;;;4980931;28;20053;-74
2023/04/20 01:35:35;;;;;;;18.42;16.90;;;4.60;99.90;;;;;;4987666;28;20069;-75
2023/04/20 01:38:01;;;;;;;17.45;16.13;;;4.50;99.90;;;;;;4991565;28;20046;-74
2023/04/20 01:40:29;;;;;;;17.77;16.15;;;4.30;99.90;;;;;;4962632;28;20046;-76
2023/04/20 01:42:58;;;;;;;15.65;14.30;;;4.30;99.90;;;;;;5011512;28;20096;-75
2023/04/20 01:45:24;;;;;;;15.77;14.23;;;4.20;99.90;;;;;;4967775;28;20562;-77
2023/04/20 01:47:51;;;;;;;15.48;13.90;;;4.10;99.90;;;;;;4992532;28;20128;-78
2023/04/20 01:50:18;;;;;;;16.38;13.43;;;4.00;99.90;;;;;;5010486;28;20080;-79
2023/04/20 01:52:45;;;;;;;14.40;13.00;;;4.00;99.90;;;;;;4996497;28;20563;-77
2023/04/20 01:55:11;;;;;;;15.80;13.00;;;4.00;99.90;;;;;;4969431;28;20511;-78
2023/04/20 01:57:38;;;;;;;18.83;13.50;;;4.00;99.90;;;;;;5011673;28;20112;-76
2023/04/20 02:00:05;;;;;;;17.73;12.40;;;4.00;99.90;;;;;;4988368;28;20096;-78
2023/04/20 02:02:39;;;;;;;14.93;12.45;;;3.90;99.90;;;;;;5010220;28;20046;-79
2023/04/20 02:05:07;;;;;;;12.30;11.00;;;4.00;99.90;;;;;;4992758;28;20045;-77
2023/04/20 02:07:33;;;;;;;13.50;11.57;;;3.90;99.90;;;;;;4995606;28;20124;-79
2023/04/20 02:10:00;;;;;;;16.13;12.65;;;3.90;99.90;;;;;;5005975;28;20046;-78
2023/04/20 02:12:27;;;;;;;17.60;13.02;;;3.90;99.90;;;;;;4984520;28;20046;-77
2023/04/20 02:14:53;;;;;;;15.43;12.55;;;3.90;99.90;;;;;;5003627;28;20046;-78
2023/04/20 02:17:20;;;;;;;16.48;13.07;;;3.90;99.90;;;;;;4991036;28;20041;-79
2023/04/20 02:19:47;;;;;;;14.25;11.27;;;3.90;99.90;;;;;;4983133;28;20048;-78
2023/04/20 02:22:14;;;;;;;17.80;12.90;;;3.90;99.90;;;;;;5009611;28;20069;-78
2023/04/20 02:24:42;;;;;;;18.10;13.13;;;3.90;99.90;;;;;;4975666;28;20037;-78
2023/04/20 02:27:09;;;;;;;14.40;8.95;;;3.90;99.90;;;;;;4995116;28;20532;-78
2023/04/20 02:29:38;;;;;;;15.55;11.57;;;3.90;99.90;;;;;;5008673;28;20503;-81
2023/04/20 02:32:06;;;;;;;15.57;12.23;;;3.90;99.90;;;;;;5002882;28;20042;-80
2023/04/20 02:34:33;;;;;;;10.52;9.43;;;4.00;99.90;;;;;;4983551;28;20038;-79
2023/04/20 02:36:59;;;;;;;16.08;12.60;;;3.90;99.90;;;;;;4980706;28;20030;-78
2023/04/20 02:39:26;;;;;;;14.77;12.27;;;3.80;99.90;;;;;;5004175;28;20068;-81
2023/04/20 02:41:53;;;;;;;12.90;10.82;;;3.90;99.90;;;;;;4988168;28;20045;-80
2023/04/20 02:44:20;;;;;;;12.70;10.95;;;3.80;99.90;;;;;;4997499;28;20088;-79
2023/04/20 02:46:47;;;;;;;14.50;10.40;;;3.80;99.90;;;;;;5004412;28;20056;-80
2023/04/20 02:49:15;;;;;;;15.52;11.43;;;3.80;99.90;;;;;;4990004;28;20050;-79
2023/04/20 02:51:43;;;;;;;14.20;11.88;;;3.80;99.90;;;;;;4972744;28;20069;-78
2023/04/20 02:54:10;;;;;;;15.13;11.25;;;3.80;99.90;;;;;;4991714;28;20490;-78
2023/04/20 02:56:37;;;;;;;10.50;9.43;;;3.80;99.90;;;;;;4995805;28;20502;-78
2023/04/20 02:59:07;;;;;;;11.27;9.13;;;3.70;99.90;;;;;;4997618;28;20737;-77
2023/04/20 03:01:42;;;;;;;;;;;3.70;99.90;;;;;;4976981;28;20038;-77
2023/04/20 03:04:13;;;;;;;14.48;10.60;;;3.60;99.90;;;;;;4993773;28;20465;-78
2023/04/20 03:06:49;;;;;;;9.70;8.70;;;3.60;99.90;;;;;;4992825;28;20071;-78
2023/04/20 03:09:21;;;;;;;10.73;9.63;;;3.60;99.90;;;;;;5010576;28;20050;-79
2023/04/20 03:11:56;;;;;;;11.63;9.80;;;3.60;99.90;;;;;;4992327;28;20041;-76
2023/04/20 03:14:46;;;;;;;15.23;10.73;;;3.60;99.90;;;;;;5011445;28;20045;-77
2023/04/20 03:17:14;;;;;;;11.50;9.45;;;3.60;99.90;;;;;;4988306;28;20099;-77
2023/04/20 03:19:41;;;;;;;13.57;11.55;;;3.60;99.90;;;;;;5007699;28;20048;-77
2023/04/20 03:22:08;;;;;;;12.45;10.55;;;3.60;99.90;;;;;;4985952;28;20056;-77
2023/04/20 03:24:35;;;;;;;12.43;11.02;;;3.60;99.90;;;;;;4997453;28;20441;-76
2023/04/20 03:27:11;;;;;;;13.95;10.20;;;3.60;99.90;;;;;;4985789;28;20046;-76
2023/04/20 03:29:49;;;;;;;12.15;9.98;;;3.50;99.90;;;;;;4995456;28;20722;-77
2023/04/20 03:32:16;;;;;;;13.38;10.38;;;3.60;99.90;;;;;;4989181;28;20137;-79
2023/04/20 03:34:42;;;;;;;10.63;9.25;;;3.60;99.90;;;;;;4986770;28;20088;-80
2023/04/20 03:37:09;;;;;;;13.80;10.23;;;3.60;99.90;;;;;;4970419;28;20178;-79
2023/04/20 03:39:36;;;;;;;14.55;11.35;;;3.50;99.90;;;;;;4986781;28;20045;-79
2023/04/20 03:42:02;;;;;;;17.58;11.10;;;3.60;99.90;;;;;;4984939;28;20252;-79
2023/04/20 03:44:29;;;;;;;13.88;10.35;;;3.50;99.90;;;;;;4999749;28;20053;-80
2023/04/20 03:46:56;;;;;;;19.13;11.30;;;3.50;99.90;;;;;;4989184;28;20054;-79
2023/04/20 03:49:26;;;;;;;12.27;9.88;;;3.50;99.90;;;;;;5010373;28;20566;-79
2023/04/20 03:51:53;;;;;;;20.48;11.57;;;3.60;99.90;;;;;;4980721;28;20060;-77
2023/04/20 03:54:21;;;;;;;14.32;11.07;;;3.60;99.90;;;;;;4991681;28;20049;-79
2023/04/20 03:56:48;;;;;;;18.17;12.77;;;3.60;99.90;;;;;;4979239;28;20042;-78
2023/04/20 03:59:16;;;;;;;15.18;11.50;;;3.60;99.90;;;;;;4976058;28;20045;-80
2023/04/20 04:01:45;;;;;;;20.33;13.93;;;3.60;99.90;;;;;;4970883;28;20042;-79
2023/04/20 04:04:12;;;;;;;23.00;14.43;;;3.60;99.90;;;;;;4988996;28;20172;-79
2023/04/20 04:06:40;;;;;;;21.50;13.07;;;3.60;99.90;;;;;;5006831;28;20116;-77
2023/04/20 04:09:07;;;;;;;20.02;12.82;;;3.60;99.90;;;;;;4993436;28;20539;-76
2023/04/20 04:11:34;;;;;;;25.15;14.98;;;3.60;99.90;;;;;;4986114;28;20055;-77
2023/04/20 04:14:03;;;;;;;23.90;14.57;;;3.70;99.90;;;;;;4991481;28;20038;-78
2023/04/20 04:16:31;;;;;;;25.13;13.38;;;3.70;99.90;;;;;;4983962;28;20132;-78
2023/04/20 04:18:58;;;;;;;25.08;16.70;;;3.70;99.90;;;;;;4992326;28;20042;-78
2023/04/20 04:21:27;;;;;;;29.63;15.75;;;3.70;99.90;;;;;;4990635;28;20060;-76
2023/04/20 04:23:59;;;;;;;23.88;14.25;;;3.70;99.90;;;;;;4992466;28;20046;-78
2023/04/20 04:26:35;;;;;;;29.05;17.10;;;3.70;99.90;;;;;;4990200;28;20096;-76
2023/04/20 04:29:03;;;;;;;25.98;15.93;;;3.70;99.90;;;;;;4981190;28;20042;-78
2023/04/20 04:31:31;;;;;;;25.15;16.40;;;3.80;99.90;;;;;;4989246;28;20064;-79
2023/04/20 04:34:03;;;;;;;25.80;16.63;;;3.80;99.90;;;;;;4976245;28;20046;-78
2023/04/20 04:36:39;;;;;;;29.83;17.08;;;3.80;99.90;;;;;;4980934;28;20046;-80
2023/04/20 04:39:11;;;;;;;24.67;16.05;;;3.80;99.90;;;;;;5004121;28;20142;-77
2023/04/20 04:41:42;;;;;;;28.20;17.40;;;3.80;99.90;;;;;;5013181;28;20056;-78
2023/04/20 04:44:21;;;;;;;25.52;16.48;;;3.80;99.90;;;;;;4990202;28;20069;-78
2023/04/20 04:46:48;;;;;;;22.02;15.38;;;3.90;99.90;;;;;;4979904;28;20632;-77
2023/04/20 04:49:14;;;;;;;26.50;16.73;;;3.90;99.90;;;;;;4990877;28;20050;-77
2023/04/20 04:51:42;;;;;;;25.17;15.85;;;3.90;99.90;;;;;;4977966;28;20053;-78
2023/04/20 04:54:10;;;;;;;23.70;14.90;;;3.90;99.90;;;;;;4989613;28;20049;-78
2023/04/20 04:56:36;;;;;;;22.92;14.73;;;3.90;99.90;;;;;;4976196;28;20049;-76
2023/04/20 04:59:03;;;;;;;24.20;15.07;;;4.00;99.90;;;;;;4988297;28;20045;-79
2023/04/20 05:01:30;;;;;;;27.15;18.63;;;3.90;99.90;;;;;;4993418;28;20034;-77
2023/04/20 05:03:56;;;;;;;27.23;15.98;;;3.90;99.90;;;;;;4995387;28;21044;-78
2023/04/20 05:06:23;;;;;;;31.10;20.23;;;4.00;99.90;;;;;;5005507;28;20057;-80
2023/04/20 05:08:50;;;;;;;25.63;18.17;;;4.00;99.90;;;;;;4988760;28;20570;-76
2023/04/20 05:11:17;;;;;;;26.52;19.33;;;4.10;99.90;;;;;;5000647;28;20593;-78
2023/04/20 05:13:44;;;;;;;23.10;15.60;;;4.10;99.90;;;;;;5017850;28;20056;-75
2023/04/20 05:16:10;;;;;;;25.92;18.15;;;4.10;99.90;;;;;;5020372;28;20045;-76
2023/04/20 05:18:37;;;;;;;30.05;19.48;;;4.10;99.90;;;;;;5000730;28;20117;-77
2023/04/20 05:21:04;;;;;;;30.38;18.90;;;4.20;99.90;;;;;;4985766;28;20072;-79
2023/04/20 05:23:30;;;;;;;22.02;14.52;;;4.20;99.90;;;;;;4985564;28;20502;-78
2023/04/20 05:25:57;;;;;;;26.15;18.67;;;4.20;99.90;;;;;;5019514;28;20056;-77
2023/04/20 05:28:24;;;;;;;28.13;18.73;;;4.20;99.90;;;;;;4996871;28;20080;-76
2023/04/20 05:30:53;;;;;;;27.35;19.33;;;4.20;99.90;;;;;;5010178;28;20050;-77
2023/04/20 05:33:21;;;;;;;30.45;20.02;;;4.20;99.90;;;;;;4998269;28;20042;-77
2023/04/20 05:35:48;;;;;;;28.40;19.00;;;4.30;99.90;;;;;;4998182;28;20133;-76
2023/04/20 05:38:14;;;;;;;36.05;21.60;;;4.30;99.90;;;;;;4969207;28;20128;-76
2023/04/20 05:40:41;;;;;;;27.95;19.90;;;4.30;99.90;;;;;;4979894;28;20058;-78
2023/04/20 05:43:08;;;;;;;35.53;20.92;;;4.40;99.90;;;;;;5010587;28;20077;-76
2023/04/20 05:45:35;;;;;;;34.22;23.27;;;4.40;99.90;;;;;;4987619;28;20063;-79
2023/04/20 05:48:01;;;;;;;29.35;20.42;;;4.40;99.90;;;;;;5002393;28;20049;-78
2023/04/20 05:50:28;;;;;;;30.25;22.10;;;4.40;99.90;;;;;;4988138;28;20108;-75
2023/04/20 05:52:55;;;;;;;28.83;21.70;;;4.40;99.90;;;;;;4998285;28;20125;-77
2023/04/20 05:55:22;;;;;;;27.25;20.83;;;4.40;99.90;;;;;;5009787;28;20160;-77
2023/04/20 05:57:50;;;;;;;31.50;22.58;;;4.40;99.90;;;;;;4979581;28;20049;-76
2023/04/20 06:00:18;;;;;;;28.35;21.13;;;4.40;99.90;;;;;;4978200;28;20049;-77
2023/04/20 06:02:44;;;;;;;31.35;22.20;;;4.40;99.90;;;;;;5006265;28;20503;-76
2023/04/20 06:05:11;;;;;;;29.75;21.60;;;4.40;99.90;;;;;;5016705;28;20127;-77
2023/04/20 06:07:39;;;;;;;35.15;23.23;;;4.40;99.90;;;;;;4998505;28;20058;-78
2023/04/20 06:10:07;;;;;;;32.88;21.90;;;4.40;99.90;;;;;;5007639;28;20129;-77
2023/04/20 06:12:34;;;;;;;28.42;20.23;;;4.50;99.90;;;;;;4992546;28;20049;-77
2023/04/20 06:15:00;;;;;;;31.38;20.58;;;4.50;99.90;;;;;;4998911;28;20038;-76
2023/04/20 06:17:27;;;;;;;27.48;18.55;;;4.50;99.90;;;;;;5002772;28;20046;-76
2023/04/20 06:19:54;;;;;;;31.27;23.27;;;4.40;99.90;;;;;;4997499;28;20128;-76
2023/04/20 06:22:21;;;;;;;23.27;17.17;;;4.50;99.90;;;;;;4994615;28;20120;-76
2023/04/20 06:24:47;;;;;;;33.33;22.55;;;4.40;99.90;;;;;;4984491;28;20057;-77
2023/04/20 06:27:14;;;;;;;25.75;17.73;;;4.40;99.90;;;;;;5002006;28;20045;-78
2023/04/20 06:29:41;;;;;;;30.98;21.00;;;4.50;99.90;;;;;;5005484;28;20046;-77
2023/04/20 06:32:08;;;;;;;32.28;21.25;;;4.50;99.90;;;;;;5000157;28;20045;-78
2023/04/20 06:34:35;;;;;;;33.47;23.63;;;4.60;99.90;;;;;;4996297;28;20121;-76
2023/04/20 06:37:04;;;;;;;30.00;21.10;;;4.50;99.90;;;;;;4981683;28;20065;-77
2023/04/20 06:39:31;;;;;;;31.70;21.20;;;4.60;99.90;;;;;;4991573;28;20568;-77
2023/04/20 06:41:58;;;;;;;30.27;20.70;;;4.60;99.90;;;;;;5006218;28;20743;-76
2023/04/20 06:44:26;;;;;;;28.83;21.35;;;4.60;99.90;;;;;;5016835;28;20510;-77
2023/04/20 06:46:53;;;;;;;27.98;20.85;;;4.60;99.90;;;;;;4981999;28;20498;-77
2023/04/20 06:49:20;;;;;;;32.33;21.40;;;4.60;99.90;;;;;;5011314;28;20050;-76
2023/04/20 06:51:47;;;;;;;31.00;20.77;;;4.70;99.90;;;;;;4987308;28;20054;-77
2023/04/20 06:54:13;;;;;;;31.20;22.23;;;4.70;99.90;;;;;;4991729;28;20080;-77
2023/04/20 06:56:40;;;;;;;31.42;21.30;;;4.70;99.90;;;;;;4983165;28;20034;-79
2023/04/20 06:59:07;;;;;;;28.13;21.02;;;4.70;99.90;;;;;;4980304;28;20587;-78
2023/04/20 07:01:33;;;;;;;27.52;19.92;;;4.70;99.90;;;;;;5008345;28;20046;-77
2023/04/20 07:04:00;;;;;;;33.13;23.00;;;4.70;99.90;;;;;;4990463;28;20874;-77
2023/04/20 07:06:27;;;;;;;27.30;21.92;;;4.70;99.90;;;;;;4991863;28;20097;-77
2023/04/20 07:08:54;;;;;;;22.88;17.48;;;4.70;99.90;;;;;;4997020;28;20050;-76
2023/04/20 07:11:22;;;;;;;24.50;19.48;;;4.70;99.90;;;;;;4995824;28;20042;-78
2023/04/20 07:13:49;;;;;;;29.40;21.17;;;4.70;99.90;;;;;;5015891;28;20046;-77
2023/04/20 07:16:15;;;;;;;23.35;20.23;;;4.60;99.90;;;;;;4995803;28;20047;-78
2023/04/20 07:18:42;;;;;;;28.15;19.77;;;4.70;99.90;;;;;;5012110;28;20038;-77
2023/04/20 07:21:09;;;;;;;23.98;19.25;;;4.70;99.90;;;;;;5015215;28;20546;-76
2023/04/20 07:23:36;;;;;;;23.33;19.65;;;4.80;99.90;;;;;;5002009;28;20048;-77
2023/04/20 07:26:03;;;;;;;21.98;19.33;;;4.80;99.90;;;;;;4984581;28;20065;-78
2023/04/20 07:28:30;;;;;;;24.48;20.77;;;4.90;99.90;;;;;;5003066;28;20129;-76
2023/04/20 07:30:58;;;;;;;21.73;18.92;;;4.90;99.90;;;;;;4999276;28;20042;-77
2023/04/20 07:33:25;;;;;;;20.20;18.00;;;5.00;99.90;;;;;;4990634;28;20196;-76
2023/04/20 07:35:51;;;;;;;20.55;18.48;;;5.10;99.90;;;;;;4989375;28;20620;-77
2023/04/20 07:38:18;;;;;;;21.67;19.58;;;5.10;99.90;;;;;;5003366;28;20042;-77
2023/04/20 07:40:45;;;;;;;20.45;18.45;;;5.10;99.90;;;;;;4995711;28;20041;-77
2023/04/20 07:43:11;;;;;;;21.83;19.92;;;5.20;99.90;;;;;;4997393;28;20129;-77
2023/04/20 07:45:40;;;;;;;19.08;17.60;;;5.30;99.90;;;;;;5014932;28;20069;-80
2023/04/20 07:48:11;;;;;;;22.67;20.77;;;5.30;99.90;;;;;;4975405;28;20075;-76
2023/04/20 07:50:38;;;;;;;22.67;20.70;;;5.40;99.90;;;;;;4997076;28;20045;-80
2023/04/20 07:53:05;;;;;;;25.38;23.17;;;5.40;99.90;;;;;;5003296;28;20046;-76
2023/04/20 07:55:31;;;;;;;23.83;21.98;;;5.50;99.90;;;;;;5014765;28;20057;-77
2023/04/20 07:57:59;;;;;;;23.58;21.80;;;5.40;99.90;;;;;;5005488;28;20501;-75
2023/04/20 08:00:26;;;;;;;23.08;21.05;;;5.40;99.90;;;;;;4975196;28;20044;-77
2023/04/20 08:02:53;;;;;;;22.40;20.63;;;5.40;99.90;;;;;;4986282;28;20132;-77
2023/04/20 08:05:20;;;;;;;22.73;20.85;;;5.40;99.90;;;;;;4992845;28;20040;-77
2023/04/20 08:07:47;;;;;;;25.75;23.45;;;5.40;99.90;;;;;;5007755;28;20473;-77
2023/04/20 08:10:14;;;;;;;22.65;20.73;;;5.50;99.90;;;;;;4992662;28;20499;-78
2023/04/20 08:12:40;;;;;;;22.88;20.98;;;5.50;99.90;;;;;;5008947;28;20061;-77
2023/04/20 08:15:08;;;;;;;24.13;22.23;;;5.40;99.90;;;;;;5007676;28;20045;-77
2023/04/20 08:17:35;;;;;;;26.20;24.15;;;5.40;99.90;;;;;;4981659;28;20104;-77
2023/04/20 08:20:04;;;;;;;22.50;20.70;;;5.40;99.90;;;;;;4987391;28;20072;-77
2023/04/20 08:22:32;;;;;;;23.77;21.27;;;5.40;99.90;;;;;;4976363;28;20059;-77
2023/04/20 08:24:59;;;;;;;24.52;22.63;;;5.50;99.90;;;;;;4987634;28;20041;-76
2023/04/20 08:27:28;;;;;;;24.00;22.08;;;5.50;99.90;;;;;;4988636;28;20038;-77
2023/04/20 08:29:55;;;;;;;22.33;20.70;;;5.50;99.90;;;;;;5003428;28;20042;-77
2023/04/20 08:32:24;;;;;;;24.05;22.25;;;5.50;99.90;;;;;;4998482;28;20034;-76
2023/04/20 08:34:52;;;;;;;22.83;21.15;;;5.50;99.90;;;;;;4997358;28;20042;-76
2023/04/20 08:37:20;;;;;;;23.10;21.17;;;5.50;99.90;;;;;;4984242;28;20125;-79
2023/04/20 08:39:46;;;;;;;24.52;22.35;;;5.40;99.90;;;;;;4995657;28;20034;-79
2023/04/20 08:42:15;;;;;;;26.15;24.02;;;5.40;99.90;;;;;;4991258;28;20099;-81
2023/04/20 08:44:42;;;;;;;24.70;22.42;;;5.50;99.90;;;;;;4970302;28;20620;-79
2023/04/20 08:47:10;;;;;;;26.00;24.00;;;5.50;99.90;;;;;;4983030;28;20045;-80
2023/04/20 08:49:38;;;;;;;25.15;23.38;;;5.60;99.90;;;;;;4992147;28;20046;-79
2023/04/20 08:52:09;;;;;;;26.77;24.75;;;5.60;99.90;;;;;;4991168;28;20096;-77
2023/04/20 08:54:37;;;;;;;27.00;24.80;;;5.60;99.90;;;;;;4967889;28;20063;-80
2023/04/20 08:57:15;;;;;;;25.52;23.80;;;5.60;99.90;;;;;;4966230;28;20065;-80
2023/04/20 08:59:42;;;;;;;28.35;25.98;;;5.60;99.90;;;;;;4992494;28;20657;-78
2023/04/20 09:02:13;;;;;;;25.88;23.95;;;5.60;99.90;;;;;;4989713;28;20045;-81
2023/04/20 09:04:39;;;;;;;25.63;23.83;;;5.70;99.90;;;;;;5005552;28;20065;-79
2023/04/20 09:07:17;;;;;;;25.85;23.77;;;5.80;99.90;;;;;;4971833;28;20730;-81
2023/04/20 09:09:59;;;;;;;27.27;25.25;;;5.80;99.90;;;;;;5007285;28;20727;-78
2023/04/20 09:12:27;;;;;;;26.20;24.20;;;5.80;99.90;;;;;;5002858;28;20038;-79
2023/04/20 09:14:54;;;;;;;25.48;23.63;;;6.00;99.90;;;;;;5005632;28;20761;-79
2023/04/20 09:17:32;;;;;;;29.58;27.25;;;6.20;99.90;;;;;;5014351;28;20049;-81
2023/04/20 09:19:59;;;;;;;29.10;27.08;;;6.30;99.90;;;;;;5013446;28;20045;-80
2023/04/20 09:22:34;;;;;;;29.40;27.30;;;6.30;99.90;;;;;;4993646;28;20228;-79
2023/04/20 09:25:14;;;;;;;;;;;6.40;99.90;;;;;;5006323;28;20046;-80
2023/04/20 09:27:41;;;;;;;29.45;27.15;;;6.50;99.90;;;;;;5010024;28;20019;-80
2023/04/20 09:30:09;;;;;;;32.05;29.85;;;6.90;99.90;;;;;;4982535;28;20054;-80
2023/04/20 09:32:36;;;;;;;28.65;26.75;;;6.90;99.90;;;;;;4996757;28;20045;-80
2023/04/20 09:35:03;;;;;;;31.02;28.73;;;6.80;99.90;;;;;;4967298;28;20037;-79
2023/04/20 09:37:29;;;;;;;30.38;27.95;;;6.90;99.90;;;;;;4986428;28;20161;-80
2023/04/20 09:39:59;;;;;;;32.72;30.23;;;7.10;99.90;;;;;;4982973;28;20535;-79
2023/04/20 09:42:27;;;;;;;31.77;29.58;;;7.00;99.90;;;;;;5002744;28;20041;-81
2023/04/20 09:44:56;;;;;;;33.95;31.55;;;7.00;99.90;;;;;;4993334;28;20041;-80
2023/04/20 09:47:24;;;;;;;34.28;32.00;;;6.70;99.90;;;;;;5015018;28;20066;-80
2023/04/20 09:49:53;;;;;;;35.38;32.85;;;6.80;99.90;;;;;;4974026;28;20042;-80
2023/04/20 09:52:21;;;;;;;34.25;31.75;;;6.90;99.90;;;;;;4978353;28;20038;-80
2023/04/20 09:54:49;;;;;;;34.20;31.52;;;6.80;99.90;;;;;;4996234;28;20066;-80
2023/04/20 09:57:17;;;;;;;35.83;33.30;;;6.60;99.90;;;;;;4987766;28;20124;-80
2023/04/20 09:59:46;;;;;;;34.47;32.00;;;6.60;99.90;;;;;;4997299;28;20096;-81
2023/04/20 10:02:13;;;;;;;32.17;29.50;;;6.70;99.90;;;;;;4992990;28;20651;-79
2023/04/20 10:04:58;;;;;;;32.90;30.27;;;6.70;99.90;;;;;;5000273;28;20093;-79
2023/04/20 10:07:30;;;;;;;35.28;32.45;;;7.00;99.90;;;;;;5005330;28;20046;-79
2023/04/20 10:10:14;;;;;;;36.35;33.58;;;7.20;99.90;;;;;;4983782;28;20136;-79
2023/04/20 10:12:48;;;;;;;40.92;37.78;;;7.20;99.90;;;;;;5000031;28;20597;-80
2023/04/20 10:15:15;;;;;;;37.53;34.75;;;7.20;99.90;;;;;;4984866;28;20057;-80
2023/04/20 10:17:43;;;;;;;39.63;36.72;;;7.20;99.90;;;;;;5004388;28;20108;-79
2023/04/20 10:20:24;;;;;;;37.95;35.25;;;7.20;99.90;;;;;;4990342;28;20034;-79
2023/04/20 10:22:53;;;;;;;38.13;35.22;;;7.20;99.90;;;;;;4985219;28;20069;-80
2023/04/20 10:25:23;;;;;;;38.58;35.83;;;7.20;99.90;;;;;;5008581;28;20052;-80
2023/04/20 10:27:58;;;;;;;39.72;36.60;;;7.20;99.90;;;;;;5009447;28;20052;-79
2023/04/20 10:30:27;;;;;;;38.00;34.85;;;7.10;99.90;;;;;;4991946;28;20469;-80
2023/04/20 10:33:02;;;;;;;35.85;33.08;;;7.00;99.90;;;;;;5017368;28;20498;-79
2023/04/20 10:36:00;;;;;;;37.08;34.08;;;7.20;99.90;;;;;;4981530;28;20588;-79
2023/04/20 10:38:35;;;;;;;34.95;32.60;;;7.30;99.90;;;;;;5005167;28;20038;-77
2023/04/20 10:41:10;;;;;;;40.50;37.75;;;7.40;99.90;;;;;;4976285;28;20045;-76
2023/04/20 10:43:42;;;;;;;43.42;40.20;;;7.80;99.90;;;;;;5000176;28;20048;-77
2023/04/20 10:46:16;;;;;;;38.80;36.10;;;8.20;99.90;;;;;;4997762;28;20034;-77
2023/04/20 10:48:53;;;;;;;44.28;41.45;;;8.70;99.90;;;;;;5017789;28;20042;-77
2023/04/20 10:51:20;;;;;;;45.05;42.22;;;8.70;99.90;;;;;;4980880;28;20038;-76
2023/04/20 10:53:57;;;;;;;42.63;39.70;;;8.80;99.90;;;;;;4997087;28;20144;-77
2023/04/20 10:56:25;;;;;;;44.80;41.88;;;8.90;99.90;;;;;;4996373;28;20410;-76
2023/04/20 10:58:53;;;;;;;42.63;39.92;;;9.30;99.90;;;;;;5008520;28;20136;-76
2023/04/20 11:01:19;;;;;;;43.13;40.38;;;9.00;99.90;;;;;;4993871;28;20044;-77
2023/04/20 11:03:52;;;;;;;49.65;46.65;;;9.20;99.90;;;;;;4988815;28;20446;-75
2023/04/20 11:06:21;;;;;;;46.28;43.40;;;9.10;99.90;;;;;;5001061;28;20037;-77
2023/04/20 11:08:48;;;;;;;44.83;42.00;;;8.90;99.90;;;;;;4991408;28;20077;-76
2023/04/20 11:11:28;;;;;;;42.65;39.92;;;8.90;99.90;;;;;;5009559;28;20057;-75
2023/04/20 11:14:06;;;;;;;42.95;40.15;;;9.00;99.90;;;;;;5007754;28;20041;-75
2023/04/20 11:16:34;;;;;;;43.25;40.33;;;9.00;99.90;;;;;;5005873;28;20128;-77
2023/04/20 11:19:27;;;;;;;43.40;40.75;;;8.60;99.90;;;;;;4994736;28;20559;-77
2023/04/20 11:21:54;;;;;;;45.53;42.75;;;8.20;99.90;;;;;;4992216;28;20041;-77
2023/04/20 11:24:25;;;;;;;42.70;39.92;;;8.10;99.90;;;;;;4976034;28;20460;-78
2023/04/20 11:26:53;;;;;;;44.22;41.63;;;8.00;99.90;;;;;;4979314;28;20037;-77
2023/04/20 11:29:35;;;;;;;40.90;38.28;;;7.90;99.90;;;;;;4970498;28;20046;-78
2023/04/20 11:32:07;;;;;;;38.38;35.72;;;7.80;99.90;;;;;;4987052;28;20045;-77
2023/04/20 11:34:37;;;;;;;35.72;33.30;;;7.90;99.90;;;;;;4998485;28;20470;-78
2023/04/20 11:37:05;;;;;;;34.92;32.53;;;8.00;99.90;;;;;;4981087;28;20042;-77
2023/04/20 11:39:32;;;;;;;35.20;32.63;;;8.10;99.90;;;;;;4999693;28;20358;-77
2023/04/20 11:41:59;;;;;;;33.40;31.00;;;8.10;99.90;;;;;;4973639;28;21073;-77
2023/04/20 11:44:26;;;;;;;32.92;30.55;;;7.90;99.90;;;;;;4995743;28;20131;-77
2023/04/20 11:46:55;;;;;;;35.97;33.58;;;8.10;99.90;;;;;;4992184;28;20561;-77
2023/04/20 11:49:24;;;;;;;39.65;37.15;;;8.40;99.90;;;;;;5006650;28;20625;-77
2023/04/20 11:51:51;;;;;;;39.55;36.85;;;8.50;99.90;;;;;;4976232;28;20314;-75
2023/04/20 11:54:18;;;;;;;35.05;32.75;;;8.60;99.90;;;;;;4988164;28;20048;-74
2023/04/20 11:56:45;;;;;;;37.85;35.35;;;8.70;99.90;;;;;;5008390;28;20121;-75
2023/04/20 11:59:18;;;;;;;37.78;35.38;;;8.70;99.90;;;;;;4975461;28;20381;-75
2023/04/20 12:01:46;;;;;;;44.70;41.80;;;8.80;99.90;;;;;;4995155;28;20105;-75
2023/04/20 12:04:13;;;;;;;43.75;41.15;;;9.10;99.90;;;;;;4999914;28;20144;-76
2023/04/20 12:06:41;;;;;;;44.30;41.60;;;9.50;99.90;;;;;;4998170;28;20042;-75
2023/04/20 12:09:08;;;;;;;45.72;42.88;;;9.70;99.90;;;;;;4978752;28;20152;-75
2023/04/20 12:11:34;;;;;;;45.53;42.60;;;9.90;99.90;;;;;;4981436;28;20104;-75
2023/04/20 12:14:02;;;;;;;44.92;42.20;;;10.00;99.90;;;;;;4993007;28;20108;-75
2023/04/20 12:16:29;;;;;;;36.92;34.58;;;9.80;99.90;;;;;;5008551;28;20060;-75
2023/04/20 12:18:56;;;;;;;37.05;34.55;;;9.50;99.90;;;;;;4989925;28;20057;-74
2023/04/20 12:21:22;;;;;;;49.92;46.58;;;9.30;99.90;;;;;;5003275;28;20221;-74
2023/04/20 12:23:50;;;;;;;36.28;33.97;;;9.50;99.90;;;;;;4990013;28;20042;-74
2023/04/20 12:26:16;;;;;;;36.15;33.50;;;9.80;99.90;;;;;;4986270;28;20080;-74
2023/04/20 12:28:44;;;;;;;43.08;40.33;;;9.70;99.90;;;;;;4999640;28;20077;-75
2023/04/20 12:31:10;;;;;;;42.00;39.35;;;9.50;99.90;;;;;;5004120;28;20065;-74
2023/04/20 12:33:37;;;;;;;33.80;31.58;;;10.00;99.90;;;;;;4991831;28;20497;-77
2023/04/20 12:36:04;;;;;;;37.28;34.88;;;10.00;99.90;;;;;;4992461;28;20152;-75
2023/04/20 12:38:31;;;;;;;34.03;31.73;;;9.80;99.90;;;;;;5013394;28;20040;-74
2023/04/20 12:40:58;;;;;;;34.33;32.13;;;10.00;99.90;;;;;;4987439;28;20533;-75
2023/04/20 12:43:24;;;;;;;33.63;31.33;;;9.90;99.90;;;;;;5000432;28;20053;-76
2023/04/20 12:45:51;;;;;;;34.45;32.05;;;9.70;99.90;;;;;;4983712;28;20819;-75